sensor_id;sensor_type;location;lat;lon;timestamp;pressure;altitude;pressure_sealevel;temperature;humidity
32747;BME280;19118;50.860;13.662;2023-03-13T00:00:03;96135.75;;;5.89;100.00
32747;BME280;19118;50.860;13.662;2023-03-13T00:05:05;96130.84;;;5.86;100.00
32747;BME280;19118;50.860;13.662;2023-03-13T00:10:06;96134.09;;;5.88;100.00
32747;BME280;19118;50.860;13.662;2023-03-13T00:15:07;96131.25;;;5.83;100.00
32747;BME280;19118;50.860;13.662;2023-03-13T00:20:08;96137.41;;;5.75;100.00
32747;BME280;19118;50.860;13.662;2023-03-13T00:25:08;96128.03;;;5.66;100.00
32747;BME280;19118;50.860;13.662;2023-03-13T00:30:09;96125.00;;;5.63;100.00
32747;BME280;19118;50.860;13.662;2023-03-13T00:35:10;96143.25;;;5.71;100.00
32747;BME280;19118;50.860;13.662;2023-03-13T00:40:10;96135.25;;;5.79;100.00
32747;BME280;19118;50.860;13.662;2023-03-13T00:45:11;96139.72;;;5.85;100.00
32747;BME280;19118;50.860;13.662;2023-03-13T00:50:11;96146.22;;;5.89;100.00
32747;BME280;19118;50.860;13.662;2023-03-13T00:55:12;96141.25;;;5.94;100.00
32747;BME280;19118;50.860;13.662;2023-03-13T01:00:12;96147.50;;;5.93;100.00
32747;BME280;19118;50.860;13.662;2023-03-13T01:05:15;96130.38;;;5.97;100.00
32747;BME280;19118;50.860;13.662;2023-03-13T01:10:15;96135.19;;;5.94;100.00
32747;BME280;19118;50.860;13.662;2023-03-13T01:15:16;96134.63;;;5.98;100.00
32747;BME280;19118;50.860;13.662;2023-03-13T01:20:18;96131.38;;;5.96;100.00
32747;BME280;19118;50.860;13.662;2023-03-13T01:25:19;96115.59;;;5.68;100.00
32747;BME280;19118;50.860;13.662;2023-03-13T01:30:20;96123.25;;;5.48;100.00
32747;BME280;19118;50.860;13.662;2023-03-13T01:35:22;96114.41;;;5.49;100.00
32747;BME280;19118;50.860;13.662;2023-03-13T01:40:23;96108.41;;;5.55;100.00
32747;BME280;19118;50.860;13.662;2023-03-13T01:45:58;96107.03;;;5.60;100.00
32747;BME280;19118;50.860;13.662;2023-03-13T01:51:08;96103.63;;;5.66;100.00
32747;BME280;19118;50.860;13.662;2023-03-13T01:56:13;96097.78;;;5.64;100.00
32747;BME280;19118;50.860;13.662;2023-03-13T02:01:17;96093.50;;;5.56;100.00
32747;BME280;19118;50.860;13.662;2023-03-13T02:06:18;96102.66;;;5.45;100.00
32747;BME280;19118;50.860;13.662;2023-03-13T02:16:41;96088.16;;;5.49;100.00
32747;BME280;19118;50.860;13.662;2023-03-13T02:22:05;96081.03;;;5.43;100.00
32747;BME280;19118;50.860;13.662;2023-03-13T02:27:06;96072.50;;;5.13;100.00
32747;BME280;19118;50.860;13.662;2023-03-13T02:32:11;96077.81;;;4.99;100.00
32747;BME280;19118;50.860;13.662;2023-03-13T02:37:12;96073.91;;;4.94;100.00
32747;BME280;19118;50.860;13.662;2023-03-13T02:42:15;96059.22;;;5.15;100.00
32747;BME280;19118;50.860;13.662;2023-03-13T02:47:21;96056.59;;;5.36;100.00
32747;BME280;19118;50.860;13.662;2023-03-13T02:52:26;96069.59;;;5.44;100.00
32747;BME280;19118;50.860;13.662;2023-03-13T02:57:28;96067.00;;;5.30;100.00
32747;BME280;19118;50.860;13.662;2023-03-13T03:02:29;96066.34;;;5.21;100.00
32747;BME280;19118;50.860;13.662;2023-03-13T03:07:29;96068.88;;;5.14;100.00
32747;BME280;19118;50.860;13.662;2023-03-13T03:12:30;96061.53;;;5.03;100.00
32747;BME280;19118;50.860;13.662;2023-03-13T03:17:32;96057.50;;;5.07;100.00
32747;BME280;19118;50.860;13.662;2023-03-13T03:22:32;96056.16;;;5.11;100.00
32747;BME280;19118;50.860;13.662;2023-03-13T03:27:34;96035.44;;;5.16;100.00
32747;BME280;19118;50.860;13.662;2023-03-13T03:32:37;96035.63;;;5.15;100.00
32747;BME280;19118;50.860;13.662;2023-03-13T03:37:37;96019.47;;;5.33;100.00
32747;BME280;19118;50.860;13.662;2023-03-13T03:42:38;96005.66;;;5.45;100.00
32747;BME280;19118;50.860;13.662;2023-03-13T03:47:39;95989.41;;;5.57;100.00
32747;BME280;19118;50.860;13.662;2023-03-13T03:52:40;95979.41;;;5.67;100.00
32747;BME280;19118;50.860;13.662;2023-03-13T03:57:40;95971.31;;;5.68;100.00
32747;BME280;19118;50.860;13.662;2023-03-13T04:02:46;95960.75;;;5.55;100.00
32747;BME280;19118;50.860;13.662;2023-03-13T04:07:47;95952.31;;;5.60;100.00
32747;BME280;19118;50.860;13.662;2023-03-13T04:12:47;95934.97;;;5.65;100.00
32747;BME280;19118;50.860;13.662;2023-03-13T04:17:48;95935.41;;;5.69;100.00
32747;BME280;19118;50.860;13.662;2023-03-13T04:22:50;95922.59;;;5.87;100.00
32747;BME280;19118;50.860;13.662;2023-03-13T04:27:52;95918.03;;;5.96;100.00
32747;BME280;19118;50.860;13.662;2023-03-13T04:32:55;95919.22;;;5.93;100.00
32747;BME280;19118;50.860;13.662;2023-03-13T04:38:03;95918.63;;;5.91;100.00
32747;BME280;19118;50.860;13.662;2023-03-13T04:43:21;95899.09;;;6.00;100.00
32747;BME280;19118;50.860;13.662;2023-03-13T04:48:27;95894.25;;;6.10;100.00
32747;BME280;19118;50.860;13.662;2023-03-13T04:53:54;95881.56;;;6.21;100.00
32747;BME280;19118;50.860;13.662;2023-03-13T04:59:05;95883.84;;;6.37;100.00
32747;BME280;19118;50.860;13.662;2023-03-13T05:04:20;95874.34;;;6.29;100.00
32747;BME280;19118;50.860;13.662;2023-03-13T05:09:47;95857.78;;;6.29;100.00
32747;BME280;19118;50.860;13.662;2023-03-13T05:15:06;95853.13;;;6.31;100.00
32747;BME280;19118;50.860;13.662;2023-03-13T05:20:19;95839.81;;;6.39;100.00
32747;BME280;19118;50.860;13.662;2023-03-13T05:25:43;95821.66;;;6.51;100.00
32747;BME280;19118;50.860;13.662;2023-03-13T05:30:43;95815.59;;;6.70;100.00
32747;BME280;19118;50.860;13.662;2023-03-13T05:36:12;95804.06;;;6.78;100.00
32747;BME280;19118;50.860;13.662;2023-03-13T05:41:36;95797.59;;;6.93;100.00
32747;BME280;19118;50.860;13.662;2023-03-13T05:47:11;95788.88;;;7.06;100.00
32747;BME280;19118;50.860;13.662;2023-03-13T05:52:21;95785.25;;;7.14;100.00
32747;BME280;19118;50.860;13.662;2023-03-13T05:57:46;95770.44;;;7.19;100.00
32747;BME280;19118;50.860;13.662;2023-03-13T06:03:01;95786.22;;;7.19;100.00
32747;BME280;19118;50.860;13.662;2023-03-13T06:08:07;95778.50;;;7.31;100.00
32747;BME280;19118;50.860;13.662;2023-03-13T06:13:09;95767.59;;;7.27;100.00
32747;BME280;19118;50.860;13.662;2023-03-13T06:18:10;95763.75;;;7.30;100.00
32747;BME280;19118;50.860;13.662;2023-03-13T06:23:10;95764.59;;;7.17;100.00
32747;BME280;19118;50.860;13.662;2023-03-13T06:28:11;95765.34;;;7.31;100.00
32747;BME280;19118;50.860;13.662;2023-03-13T06:33:11;95762.28;;;7.41;100.00
32747;BME280;19118;50.860;13.662;2023-03-13T06:38:11;95742.44;;;7.45;100.00
32747;BME280;19118;50.860;13.662;2023-03-13T06:43:12;95733.53;;;7.46;100.00
32747;BME280;19118;50.860;13.662;2023-03-13T06:48:12;95718.75;;;7.51;100.00
32747;BME280;19118;50.860;13.662;2023-03-13T06:53:18;95716.69;;;7.60;100.00
32747;BME280;19118;50.860;13.662;2023-03-13T06:58:18;95708.00;;;7.59;100.00
32747;BME280;19118;50.860;13.662;2023-03-13T07:03:19;95685.72;;;7.62;100.00
32747;BME280;19118;50.860;13.662;2023-03-13T07:08:19;95706.22;;;7.85;100.00
32747;BME280;19118;50.860;13.662;2023-03-13T07:13:20;95711.59;;;8.28;100.00
32747;BME280;19118;50.860;13.662;2023-03-13T07:18:21;95684.75;;;8.44;100.00
32747;BME280;19118;50.860;13.662;2023-03-13T07:23:23;95672.16;;;8.46;100.00
32747;BME280;19118;50.860;13.662;2023-03-13T07:28:24;95665.22;;;8.52;100.00
32747;BME280;19118;50.860;13.662;2023-03-13T07:33:25;95651.50;;;8.43;100.00
32747;BME280;19118;50.860;13.662;2023-03-13T07:38:26;95645.16;;;8.26;100.00
32747;BME280;19118;50.860;13.662;2023-03-13T07:43:26;95628.44;;;8.14;100.00
32747;BME280;19118;50.860;13.662;2023-03-13T07:48:36;95610.56;;;7.98;100.00
32747;BME280;19118;50.860;13.662;2023-03-13T07:53:37;95605.63;;;8.08;100.00
32747;BME280;19118;50.860;13.662;2023-03-13T07:58:38;95577.13;;;8.23;100.00
32747;BME280;19118;50.860;13.662;2023-03-13T08:03:39;95573.78;;;8.34;100.00
32747;BME280;19118;50.860;13.662;2023-03-13T08:08:39;95577.19;;;8.41;100.00
32747;BME280;19118;50.860;13.662;2023-03-13T08:13:40;95573.41;;;8.31;100.00
32747;BME280;19118;50.860;13.662;2023-03-13T08:18:44;95572.03;;;8.46;100.00
32747;BME280;19118;50.860;13.662;2023-03-13T08:23:44;95570.38;;;8.52;100.00
32747;BME280;19118;50.860;13.662;2023-03-13T08:28:46;95583.47;;;8.59;100.00
32747;BME280;19118;50.860;13.662;2023-03-13T08:33:47;95574.25;;;8.50;100.00
32747;BME280;19118;50.860;13.662;2023-03-13T08:38:48;95588.59;;;8.54;100.00
32747;BME280;19118;50.860;13.662;2023-03-13T08:43:51;95602.84;;;8.83;100.00
32747;BME280;19118;50.860;13.662;2023-03-13T08:48:52;95622.38;;;9.12;100.00
32747;BME280;19118;50.860;13.662;2023-03-13T08:53:54;95639.13;;;9.36;100.00
32747;BME280;19118;50.860;13.662;2023-03-13T08:58:57;95625.28;;;9.40;100.00
32747;BME280;19118;50.860;13.662;2023-03-13T09:03:58;95631.25;;;9.47;100.00
32747;BME280;19118;50.860;13.662;2023-03-13T09:09:00;95617.44;;;9.63;100.00
32747;BME280;19118;50.860;13.662;2023-03-13T09:14:00;95615.00;;;10.15;100.00
32747;BME280;19118;50.860;13.662;2023-03-13T09:19:01;95605.34;;;10.21;100.00
32747;BME280;19118;50.860;13.662;2023-03-13T09:24:01;95608.28;;;10.43;100.00
32747;BME280;19118;50.860;13.662;2023-03-13T09:29:02;95600.66;;;10.58;100.00
32747;BME280;19118;50.860;13.662;2023-03-13T09:34:02;95617.75;;;9.97;100.00
32747;BME280;19118;50.860;13.662;2023-03-13T09:39:03;95633.56;;;9.85;100.00
32747;BME280;19118;50.860;13.662;2023-03-13T09:44:09;95622.66;;;9.93;100.00
32747;BME280;19118;50.860;13.662;2023-03-13T09:49:28;95616.75;;;10.45;100.00
32747;BME280;19118;50.860;13.662;2023-03-13T09:54:38;95603.25;;;11.33;100.00
32747;BME280;19118;50.860;13.662;2023-03-13T10:04:50;95615.25;;;12.48;100.00
32747;BME280;19118;50.860;13.662;2023-03-13T10:09:52;95591.72;;;12.74;100.00
32747;BME280;19118;50.860;13.662;2023-03-13T10:15:22;95616.75;;;12.44;100.00
32747;BME280;19118;50.860;13.662;2023-03-13T10:20:32;95614.78;;;11.73;100.00
32747;BME280;19118;50.860;13.662;2023-03-13T10:25:36;95596.63;;;11.48;100.00
32747;BME280;19118;50.860;13.662;2023-03-13T10:30:47;95600.06;;;11.48;100.00
32747;BME280;19118;50.860;13.662;2023-03-13T10:36:08;95582.97;;;12.18;100.00
32747;BME280;19118;50.860;13.662;2023-03-13T10:41:19;95576.53;;;12.69;100.00
32747;BME280;19118;50.860;13.662;2023-03-13T10:46:30;95569.34;;;13.13;100.00
32747;BME280;19118;50.860;13.662;2023-03-13T10:51:37;95579.50;;;13.17;100.00
32747;BME280;19118;50.860;13.662;2023-03-13T10:56:37;95583.28;;;13.21;100.00
32747;BME280;19118;50.860;13.662;2023-03-13T11:01:41;95567.91;;;13.23;100.00
32747;BME280;19118;50.860;13.662;2023-03-13T11:06:41;95579.38;;;13.06;100.00
32747;BME280;19118;50.860;13.662;2023-03-13T11:12:05;95569.69;;;13.17;100.00
32747;BME280;19118;50.860;13.662;2023-03-13T11:17:17;95574.06;;;13.06;100.00
32747;BME280;19118;50.860;13.662;2023-03-13T11:22:44;95571.78;;;13.15;100.00
32747;BME280;19118;50.860;13.662;2023-03-13T11:28:16;95578.84;;;13.04;100.00
32747;BME280;19118;50.860;13.662;2023-03-13T11:33:36;95607.34;;;12.53;100.00
32747;BME280;19118;50.860;13.662;2023-03-13T11:38:43;95591.72;;;12.18;100.00
32747;BME280;19118;50.860;13.662;2023-03-13T11:43:56;95591.00;;;12.06;100.00
32747;BME280;19118;50.860;13.662;2023-03-13T11:49:08;95589.63;;;11.87;100.00
32747;BME280;19118;50.860;13.662;2023-03-13T11:59:36;95589.78;;;11.80;100.00
32747;BME280;19118;50.860;13.662;2023-03-13T12:04:47;95595.28;;;11.62;100.00
32747;BME280;19118;50.860;13.662;2023-03-13T12:09:53;95589.59;;;11.70;100.00
32747;BME280;19118;50.860;13.662;2023-03-13T12:14:59;95568.53;;;11.63;100.00
32747;BME280;19118;50.860;13.662;2023-03-13T12:20:05;95553.56;;;11.69;100.00
32747;BME280;19118;50.860;13.662;2023-03-13T12:25:20;95553.75;;;11.96;100.00
32747;BME280;19118;50.860;13.662;2023-03-13T12:36:12;95558.41;;;12.83;100.00
32747;BME280;19118;50.860;13.662;2023-03-13T12:41:30;95557.25;;;13.72;100.00
32747;BME280;19118;50.860;13.662;2023-03-13T12:52:12;95537.88;;;14.08;100.00
32747;BME280;19118;50.860;13.662;2023-03-13T13:02:31;95535.84;;;14.68;99.14
32747;BME280;19118;50.860;13.662;2023-03-13T13:07:33;95527.28;;;15.38;98.63
32747;BME280;19118;50.860;13.662;2023-03-13T13:12:42;95531.38;;;15.66;95.61
32747;BME280;19118;50.860;13.662;2023-03-13T13:23:26;95518.78;;;15.41;91.55
32747;BME280;19118;50.860;13.662;2023-03-13T13:28:33;95505.25;;;15.63;91.60
32747;BME280;19118;50.860;13.662;2023-03-13T13:33:35;95510.31;;;15.70;89.67
32747;BME280;19118;50.860;13.662;2023-03-13T13:38:38;95492.19;;;15.72;90.13
32747;BME280;19118;50.860;13.662;2023-03-13T13:43:41;95486.00;;;15.36;89.47
32747;BME280;19118;50.860;13.662;2023-03-13T13:48:42;95468.97;;;15.83;89.47
32747;BME280;19118;50.860;13.662;2023-03-13T13:58:47;95483.66;;;15.75;87.15
32747;BME280;19118;50.860;13.662;2023-03-13T14:03:50;95473.75;;;15.96;88.88
32747;BME280;19118;50.860;13.662;2023-03-13T14:08:54;95492.16;;;16.13;86.91
32747;BME280;19118;50.860;13.662;2023-03-13T14:14:18;95496.44;;;15.68;86.49
32747;BME280;19118;50.860;13.662;2023-03-13T14:24:27;95502.19;;;15.14;92.91
32747;BME280;19118;50.860;13.662;2023-03-13T14:29:27;95494.25;;;15.39;91.71
32747;BME280;19118;50.860;13.662;2023-03-13T14:34:28;95470.75;;;15.06;93.66
32747;BME280;19118;50.860;13.662;2023-03-13T14:44:33;95438.34;;;15.55;90.18
32747;BME280;19118;50.860;13.662;2023-03-13T14:49:34;95449.25;;;15.84;89.12
32747;BME280;19118;50.860;13.662;2023-03-13T14:54:50;95458.84;;;15.44;88.30
32747;BME280;19118;50.860;13.662;2023-03-13T14:59:52;95454.53;;;15.07;92.22
32747;BME280;19118;50.860;13.662;2023-03-13T15:05:05;95442.97;;;14.66;95.31
32747;BME280;19118;50.860;13.662;2023-03-13T15:10:24;95437.50;;;14.36;97.38
32747;BME280;19118;50.860;13.662;2023-03-13T15:15:25;95452.28;;;14.11;100.00
32747;BME280;19118;50.860;13.662;2023-03-13T15:20:25;95448.41;;;13.87;100.00
32747;BME280;19118;50.860;13.662;2023-03-13T15:25:27;95442.22;;;13.76;100.00
32747;BME280;19118;50.860;13.662;2023-03-13T15:30:28;95423.75;;;13.54;100.00
32747;BME280;19118;50.860;13.662;2023-03-13T15:35:30;95425.41;;;13.60;100.00
32747;BME280;19118;50.860;13.662;2023-03-13T15:40:31;95415.06;;;13.64;100.00
32747;BME280;19118;50.860;13.662;2023-03-13T15:45:32;95411.50;;;13.48;100.00
32747;BME280;19118;50.860;13.662;2023-03-13T15:50:32;95384.88;;;13.38;100.00
32747;BME280;19118;50.860;13.662;2023-03-13T15:55:32;95377.91;;;13.32;100.00
32747;BME280;19118;50.860;13.662;2023-03-13T16:00:33;95363.06;;;13.36;100.00
32747;BME280;19118;50.860;13.662;2023-03-13T16:05:33;95356.38;;;13.28;100.00
32747;BME280;19118;50.860;13.662;2023-03-13T16:10:34;95336.69;;;13.19;100.00
32747;BME280;19118;50.860;13.662;2023-03-13T16:15:35;95321.28;;;13.21;100.00
32747;BME280;19118;50.860;13.662;2023-03-13T16:20:35;95307.63;;;13.07;100.00
32747;BME280;19118;50.860;13.662;2023-03-13T16:25:36;95297.84;;;12.76;100.00
32747;BME280;19118;50.860;13.662;2023-03-13T16:30:37;95286.81;;;12.57;100.00
32747;BME280;19118;50.860;13.662;2023-03-13T16:35:42;95284.50;;;12.39;100.00
32747;BME280;19118;50.860;13.662;2023-03-13T16:40:42;95270.97;;;12.35;100.00
32747;BME280;19118;50.860;13.662;2023-03-13T16:45:43;95269.00;;;12.52;100.00
32747;BME280;19118;50.860;13.662;2023-03-13T16:50:43;95269.53;;;12.54;100.00
32747;BME280;19118;50.860;13.662;2023-03-13T16:55:45;95262.69;;;12.32;100.00
32747;BME280;19118;50.860;13.662;2023-03-13T17:00:45;95242.84;;;12.07;100.00
32747;BME280;19118;50.860;13.662;2023-03-13T17:05:46;95238.50;;;11.74;100.00
32747;BME280;19118;50.860;13.662;2023-03-13T17:10:46;95236.06;;;11.46;100.00
32747;BME280;19118;50.860;13.662;2023-03-13T17:15:46;95226.03;;;11.48;100.00
32747;BME280;19118;50.860;13.662;2023-03-13T17:20:47;95219.72;;;11.54;100.00
32747;BME280;19118;50.860;13.662;2023-03-13T17:25:47;95222.38;;;11.54;100.00
32747;BME280;19118;50.860;13.662;2023-03-13T17:30:48;95227.75;;;11.59;100.00
32747;BME280;19118;50.860;13.662;2023-03-13T17:35:48;95226.19;;;11.63;100.00
32747;BME280;19118;50.860;13.662;2023-03-13T17:40:48;95228.13;;;11.46;100.00
32747;BME280;19118;50.860;13.662;2023-03-13T17:45:49;95233.72;;;11.27;100.00
32747;BME280;19118;50.860;13.662;2023-03-13T17:50:49;95208.75;;;11.01;100.00
32747;BME280;19118;50.860;13.662;2023-03-13T17:55:50;95208.22;;;10.99;100.00
32747;BME280;19118;50.860;13.662;2023-03-13T18:00:50;95193.56;;;10.92;100.00
32747;BME280;19118;50.860;13.662;2023-03-13T18:05:51;95191.47;;;10.94;100.00
32747;BME280;19118;50.860;13.662;2023-03-13T18:10:51;95190.03;;;10.86;100.00
32747;BME280;19118;50.860;13.662;2023-03-13T18:15:51;95170.72;;;10.86;100.00
32747;BME280;19118;50.860;13.662;2023-03-13T18:20:52;95167.09;;;10.92;100.00
32747;BME280;19118;50.860;13.662;2023-03-13T18:25:53;95153.13;;;10.96;100.00
32747;BME280;19118;50.860;13.662;2023-03-13T18:30:53;95161.22;;;11.06;100.00
32747;BME280;19118;50.860;13.662;2023-03-13T18:35:54;95152.97;;;11.03;100.00
32747;BME280;19118;50.860;13.662;2023-03-13T18:40:54;95161.59;;;11.15;100.00
32747;BME280;19118;50.860;13.662;2023-03-13T18:45:54;95156.78;;;11.34;100.00
32747;BME280;19118;50.860;13.662;2023-03-13T18:50:55;95154.94;;;11.34;100.00
32747;BME280;19118;50.860;13.662;2023-03-13T18:56:11;95132.06;;;11.23;100.00
32747;BME280;19118;50.860;13.662;2023-03-13T19:01:15;95118.09;;;11.06;100.00
32747;BME280;19118;50.860;13.662;2023-03-13T19:06:26;95120.31;;;10.92;100.00
32747;BME280;19118;50.860;13.662;2023-03-13T19:11:29;95108.84;;;10.87;100.00
32747;BME280;19118;50.860;13.662;2023-03-13T19:16:52;95107.63;;;10.94;100.00
32747;BME280;19118;50.860;13.662;2023-03-13T19:21:54;95089.00;;;11.06;100.00
32747;BME280;19118;50.860;13.662;2023-03-13T19:26:55;95115.44;;;11.28;100.00
32747;BME280;19118;50.860;13.662;2023-03-13T19:31:58;95159.78;;;11.43;100.00
32747;BME280;19118;50.860;13.662;2023-03-13T19:37:04;95212.59;;;11.54;100.00
32747;BME280;19118;50.860;13.662;2023-03-13T19:42:04;95340.19;;;10.84;100.00
32747;BME280;19118;50.860;13.662;2023-03-13T19:47:11;95316.44;;;10.39;100.00
32747;BME280;19118;50.860;13.662;2023-03-13T19:52:12;95324.16;;;10.00;100.00
32747;BME280;19118;50.860;13.662;2023-03-13T19:57:12;95311.06;;;9.65;100.00
32747;BME280;19118;50.860;13.662;2023-03-13T20:02:13;95298.59;;;9.37;100.00
32747;BME280;19118;50.860;13.662;2023-03-13T20:07:13;95262.84;;;9.18;100.00
32747;BME280;19118;50.860;13.662;2023-03-13T20:12:13;95256.31;;;9.09;100.00
32747;BME280;19118;50.860;13.662;2023-03-13T20:17:14;95233.25;;;9.16;100.00
32747;BME280;19118;50.860;13.662;2023-03-13T20:22:14;95221.31;;;9.25;100.00
32747;BME280;19118;50.860;13.662;2023-03-13T20:27:15;95218.63;;;9.37;100.00
32747;BME280;19118;50.860;13.662;2023-03-13T20:32:15;95212.31;;;9.38;100.00
32747;BME280;19118;50.860;13.662;2023-03-13T20:37:15;95198.81;;;9.34;100.00
32747;BME280;19118;50.860;13.662;2023-03-13T20:42:16;95194.34;;;9.34;100.00
32747;BME280;19118;50.860;13.662;2023-03-13T20:47:16;95165.31;;;9.34;100.00
32747;BME280;19118;50.860;13.662;2023-03-13T20:52:16;95142.94;;;9.37;100.00
32747;BME280;19118;50.860;13.662;2023-03-13T20:57:17;95127.66;;;9.39;100.00
32747;BME280;19118;50.860;13.662;2023-03-13T21:02:18;95121.84;;;9.37;100.00
32747;BME280;19118;50.860;13.662;2023-03-13T21:07:19;95117.13;;;9.39;100.00
32747;BME280;19118;50.860;13.662;2023-03-13T21:12:20;95106.91;;;9.43;100.00
32747;BME280;19118;50.860;13.662;2023-03-13T21:17:20;95088.03;;;9.51;100.00
32747;BME280;19118;50.860;13.662;2023-03-13T21:22:21;95102.16;;;9.56;100.00
32747;BME280;19118;50.860;13.662;2023-03-13T21:27:22;95107.28;;;9.63;100.00
32747;BME280;19118;50.860;13.662;2023-03-13T21:32:23;95097.97;;;9.60;100.00
32747;BME280;19118;50.860;13.662;2023-03-13T21:37:23;95072.88;;;9.58;100.00
32747;BME280;19118;50.860;13.662;2023-03-13T21:42:24;95050.41;;;9.55;100.00
32747;BME280;19118;50.860;13.662;2023-03-13T21:47:25;95042.88;;;9.47;100.00
32747;BME280;19118;50.860;13.662;2023-03-13T21:52:25;95041.75;;;9.43;100.00
32747;BME280;19118;50.860;13.662;2023-03-13T21:57:25;95044.47;;;9.48;100.00
32747;BME280;19118;50.860;13.662;2023-03-13T22:02:26;95050.16;;;9.57;100.00
32747;BME280;19118;50.860;13.662;2023-03-13T22:07:26;95054.00;;;9.66;100.00
32747;BME280;19118;50.860;13.662;2023-03-13T22:12:27;95075.09;;;9.49;100.00
32747;BME280;19118;50.860;13.662;2023-03-13T22:17:27;95095.88;;;9.46;100.00
32747;BME280;19118;50.860;13.662;2023-03-13T22:22:27;95103.25;;;9.44;100.00
32747;BME280;19118;50.860;13.662;2023-03-13T22:27:28;95102.25;;;9.33;100.00
32747;BME280;19118;50.860;13.662;2023-03-13T22:32:28;95080.34;;;9.32;100.00
32747;BME280;19118;50.860;13.662;2023-03-13T22:37:29;95068.09;;;9.26;100.00
32747;BME280;19118;50.860;13.662;2023-03-13T22:42:29;95084.66;;;9.22;100.00
32747;BME280;19118;50.860;13.662;2023-03-13T22:47:29;95104.63;;;9.18;100.00
32747;BME280;19118;50.860;13.662;2023-03-13T22:52:31;95131.00;;;9.18;100.00
32747;BME280;19118;50.860;13.662;2023-03-13T22:57:32;95143.59;;;9.16;100.00
32747;BME280;19118;50.860;13.662;2023-03-13T23:02:32;95139.38;;;9.03;100.00
32747;BME280;19118;50.860;13.662;2023-03-13T23:07:33;95142.50;;;9.00;100.00
32747;BME280;19118;50.860;13.662;2023-03-13T23:12:35;95154.31;;;8.97;100.00
32747;BME280;19118;50.860;13.662;2023-03-13T23:17:37;95142.72;;;8.98;100.00
32747;BME280;19118;50.860;13.662;2023-03-13T23:22:40;95132.75;;;9.00;100.00
32747;BME280;19118;50.860;13.662;2023-03-13T23:27:40;95118.22;;;8.98;100.00
32747;BME280;19118;50.860;13.662;2023-03-13T23:32:43;95108.66;;;9.09;100.00
32747;BME280;19118;50.860;13.662;2023-03-13T23:37:48;95094.31;;;9.04;100.00
32747;BME280;19118;50.860;13.662;2023-03-13T23:42:50;95096.19;;;8.92;100.00
32747;BME280;19118;50.860;13.662;2023-03-13T23:47:51;95099.22;;;8.84;100.00
32747;BME280;19118;50.860;13.662;2023-03-13T23:52:52;95063.44;;;8.88;100.00
32747;BME280;19118;50.860;13.662;2023-03-13T23:57:54;94945.41;;;8.90;100.00
